createdAt,value
2018-03-01T00:02:08.645Z,67.97
2018-03-01T00:04:36.180Z,68.08
2018-03-01T00:07:03.729Z,67.95
2018-03-01T00:09:31.262Z,67.96
2018-03-01T00:11:58.764Z,68.02
2018-03-01T00:14:26.266Z,67.72
2018-03-01T00:16:53.892Z,67.72
2018-03-01T00:19:21.436Z,68.04
2018-03-01T00:21:48.973Z,67.94
2018-03-01T00:24:16.532Z,68.02
2018-03-01T00:26:44.055Z,68.33
2018-03-01T00:29:11.771Z,68.15
2018-03-01T00:31:39.308Z,67.74
2018-03-01T00:34:06.836Z,67.59
2018-03-01T00:36:34.897Z,67.94
2018-03-01T00:39:02.399Z,67.69
2018-03-01T00:41:29.920Z,67.96
2018-03-01T00:43:57.449Z,67.92
2018-03-01T00:46:24.961Z,67.79
2018-03-01T00:48:52.473Z,67.93
2018-03-01T00:51:20.081Z,67.85
2018-03-01T00:53:47.619Z,67.91
2018-03-01T00:56:15.196Z,68.00
2018-03-01T00:58:42.727Z,67.87
2018-03-01T01:01:10.276Z,67.74
2018-03-01T01:03:37.793Z,67.15
2018-03-01T01:06:05.310Z,67.74
2018-03-01T01:08:32.831Z,67.55
2018-03-01T01:11:00.358Z,67.25
2018-03-01T01:13:27.976Z,67.31
2018-03-01T01:15:55.773Z,67.39
2018-03-01T01:18:23.306Z,67.02
2018-03-01T01:20:50.840Z,67.14
2018-03-01T01:23:18.350Z,67.00
2018-03-01T01:25:46.119Z,67.16
2018-03-01T01:28:13.672Z,66.98
2018-03-01T01:30:41.261Z,66.92
2018-03-01T01:33:08.806Z,66.96
2018-03-01T01:35:36.368Z,67.20
2018-03-01T01:38:03.950Z,67.06
2018-03-01T01:40:31.480Z,66.85
2018-03-01T01:42:59.087Z,66.83
2018-03-01T01:45:26.667Z,66.90
2018-03-01T01:47:54.536Z,67.00
2018-03-01T01:50:22.094Z,66.87
2018-03-01T01:52:49.665Z,66.76
2018-03-01T01:55:17.221Z,66.96
2018-03-01T01:57:44.733Z,66.54
2018-03-01T02:00:12.338Z,66.94
2018-03-01T02:02:39.937Z,66.88
2018-03-01T02:05:07.533Z,66.96
2018-03-01T02:07:35.113Z,66.55
2018-03-01T02:10:02.651Z,66.69
2018-03-01T02:12:30.255Z,66.53
2018-03-01T02:14:57.787Z,66.46
2018-03-01T02:17:25.353Z,66.48
2018-03-01T02:19:52.887Z,66.29
2018-03-01T02:22:20.406Z,66.30
2018-03-01T02:24:48.011Z,66.64
2018-03-01T02:27:15.581Z,66.62
2018-03-01T02:29:43.148Z,66.58
2018-03-01T02:32:10.662Z,66.54
2018-03-01T02:34:38.197Z,66.62
2018-03-01T02:37:05.733Z,66.52
2018-03-01T02:39:33.278Z,66.69
2018-03-01T02:42:00.789Z,66.74
2018-03-01T02:44:28.328Z,66.48
2018-03-01T02:46:55.912Z,65.83
2018-03-01T02:49:23.497Z,66.14
2018-03-01T02:51:51.032Z,66.55
2018-03-01T02:54:18.581Z,66.58
2018-03-01T02:56:46.112Z,66.56
2018-03-01T02:59:13.707Z,66.25
2018-03-01T03:01:41.250Z,66.65
2018-03-01T03:04:08.862Z,66.82
2018-03-01T03:09:02.546Z,66.57
2018-03-01T03:11:30.073Z,66.15
2018-03-01T03:13:57.644Z,66.20
2018-03-01T03:16:25.176Z,66.41
2018-03-01T03:18:52.712Z,65.79
2018-03-01T03:21:20.226Z,66.24
2018-03-01T03:23:47.781Z,66.37
2018-03-01T03:26:15.367Z,66.52
2018-03-01T03:28:42.945Z,66.27
2018-03-01T03:31:10.597Z,66.39
2018-03-01T03:33:38.129Z,66.26
2018-03-01T03:36:05.680Z,66.47
2018-03-01T03:38:33.202Z,66.42
2018-03-01T03:41:00.742Z,66.35
2018-03-01T03:43:28.319Z,66.32
2018-03-01T03:45:55.852Z,66.33
2018-03-01T03:48:23.385Z,66.17
2018-03-01T03:50:50.924Z,66.38
2018-03-01T03:53:18.512Z,66.53
2018-03-01T03:55:46.071Z,66.41
2018-03-01T03:58:13.576Z,66.31
2018-03-01T04:00:41.113Z,66.26
2018-03-01T04:03:08.671Z,66.27
2018-03-01T04:05:36.225Z,66.63
2018-03-01T04:08:03.742Z,66.20
2018-03-01T04:10:31.352Z,66.44
2018-03-01T04:12:58.901Z,66.10
2018-03-01T04:15:26.487Z,66.38
2018-03-01T04:17:54.008Z,66.01
2018-03-01T04:20:21.532Z,66.06
2018-03-01T04:22:49.082Z,66.14
2018-03-01T04:25:16.621Z,66.35
2018-03-01T04:27:44.164Z,66.34
2018-03-01T04:30:11.731Z,66.05
2018-03-01T04:32:39.249Z,66.40
2018-03-01T04:35:06.781Z,66.05
2018-03-01T04:37:34.353Z,66.04
2018-03-01T04:40:01.963Z,66.23
2018-03-01T04:42:29.501Z,66.10
2018-03-01T04:44:57.037Z,66.27
2018-03-01T04:47:24.597Z,66.06
2018-03-01T04:49:52.162Z,66.12
2018-03-01T04:52:19.760Z,66.14
2018-03-01T04:54:47.317Z,66.01
2018-03-01T04:57:14.852Z,66.23
2018-03-01T04:59:42.409Z,65.94
2018-03-01T05:02:09.994Z,66.07
2018-03-01T05:04:37.521Z,68.20
2018-03-01T05:07:05.082Z,77.84
2018-03-01T05:09:32.698Z,72.10
2018-03-01T05:12:00.261Z,70.49
2018-03-01T05:14:27.869Z,69.28
2018-03-01T05:16:55.425Z,68.45
2018-03-01T05:19:22.991Z,67.97
2018-03-01T05:21:50.565Z,67.52
2018-03-01T05:24:18.130Z,66.60
2018-03-01T05:26:45.676Z,66.40
2018-03-01T05:29:13.200Z,66.25
2018-03-01T05:31:40.802Z,65.88
2018-03-01T05:34:08.354Z,65.25
2018-03-01T05:36:35.893Z,65.07
2018-03-01T05:39:03.484Z,64.69
2018-03-01T05:41:31.051Z,64.51
2018-03-01T05:43:58.612Z,64.20
2018-03-01T05:46:26.269Z,63.71
2018-03-01T05:48:53.849Z,63.22
2018-03-01T05:51:21.417Z,62.43
2018-03-01T05:53:49.027Z,62.23
2018-03-01T05:56:16.606Z,61.87
2018-03-01T05:58:44.172Z,59.91
2018-03-01T06:01:11.763Z,58.92
2018-03-01T06:03:39.332Z,59.13
2018-03-01T06:06:06.881Z,59.74
2018-03-01T06:08:34.499Z,58.77
2018-03-01T06:11:02.052Z,59.13
2018-03-01T06:13:29.633Z,56.83
2018-03-01T06:15:57.228Z,56.11
2018-03-01T06:18:24.786Z,54.98
2018-03-01T06:20:52.330Z,54.86
2018-03-01T06:23:19.920Z,53.20
2018-03-01T06:25:47.492Z,53.28
2018-03-01T06:28:15.186Z,53.02
2018-03-01T06:30:42.760Z,51.62
2018-03-01T06:33:10.329Z,49.30
2018-03-01T06:35:37.879Z,49.13
2018-03-01T06:38:05.432Z,48.84
2018-03-01T06:40:32.989Z,90.34
2018-03-01T06:43:00.556Z,91.72
2018-03-01T06:45:28.126Z,92.16
2018-03-01T06:47:55.710Z,88.31
2018-03-01T06:50:23.263Z,88.19
2018-03-01T06:52:50.841Z,83.71
2018-03-01T06:55:18.401Z,49.63
2018-03-01T06:57:45.980Z,45.72
2018-03-01T07:00:13.682Z,41.51
2018-03-01T07:02:41.234Z,42.25
2018-03-01T07:05:08.844Z,40.41
2018-03-01T07:07:36.395Z,40.09
2018-03-01T07:10:03.967Z,39.60
2018-03-01T07:12:31.518Z,37.84
2018-03-01T07:14:59.077Z,38.39
2018-03-01T07:17:26.602Z,35.34
2018-03-01T07:19:54.138Z,33.05
2018-03-01T07:22:23.001Z,31.63
2018-03-01T07:24:50.608Z,31.69
2018-03-01T07:27:18.175Z,32.91
2018-03-01T07:29:45.778Z,40.73
2018-03-01T07:32:13.400Z,41.12
2018-03-01T07:34:41.003Z,32.79
2018-03-01T07:37:08.552Z,30.98
2018-03-01T07:39:36.106Z,30.93
2018-03-01T07:42:05.895Z,33.60
2018-03-01T07:44:33.964Z,23.69
2018-03-01T07:47:01.564Z,25.64
2018-03-01T07:49:29.140Z,28.08
2018-03-01T07:51:56.683Z,28.43
2018-03-01T07:54:24.232Z,26.20
2018-03-01T07:56:51.767Z,27.68
2018-03-01T07:59:19.322Z,28.93
2018-03-01T08:01:46.910Z,28.24
2018-03-01T08:04:14.468Z,25.18
2018-03-01T08:06:42.058Z,26.64
2018-03-01T08:09:09.663Z,25.33
2018-03-01T08:11:37.240Z,26.07
2018-03-01T08:14:04.882Z,25.43
2018-03-01T08:16:32.468Z,24.31
2018-03-01T08:19:00.051Z,29.47
2018-03-01T08:21:27.602Z,29.92
2018-03-01T08:23:55.198Z,24.84
2018-03-01T08:26:22.758Z,25.38
2018-03-01T08:28:50.287Z,23.98
2018-03-01T08:31:17.920Z,25.33
2018-03-01T08:33:45.459Z,27.17
2018-03-01T08:36:13.033Z,24.92
2018-03-01T08:38:40.589Z,25.91
2018-03-01T08:41:08.267Z,25.42
2018-03-01T08:43:35.791Z,25.68
2018-03-01T08:46:03.325Z,25.21
2018-03-01T08:48:30.887Z,24.35
2018-03-01T08:50:58.467Z,28.30
2018-03-01T08:53:26.063Z,30.53
2018-03-01T08:55:53.620Z,24.20
2018-03-01T08:58:21.218Z,25.52
2018-03-01T09:00:48.840Z,29.82
2018-03-01T09:03:16.524Z,25.98
2018-03-01T09:05:44.104Z,24.11
2018-03-01T09:08:11.672Z,25.70
2018-03-01T09:10:39.208Z,29.98
2018-03-01T09:13:06.735Z,27.97
2018-03-01T09:15:34.319Z,27.80
2018-03-01T09:18:01.896Z,30.97
2018-03-01T09:20:29.444Z,31.91
2018-03-01T09:22:57.069Z,35.20
2018-03-01T09:25:24.639Z,33.16
2018-03-01T09:27:52.177Z,29.95
2018-03-01T09:30:19.839Z,26.65
2018-03-01T09:32:47.372Z,28.40
2018-03-01T09:35:14.947Z,26.56
2018-03-01T09:37:42.557Z,34.05
2018-03-01T09:40:10.076Z,29.54
2018-03-01T09:42:37.604Z,31.92
2018-03-01T09:45:05.195Z,28.39
2018-03-01T09:47:32.752Z,25.65
2018-03-01T09:50:00.319Z,24.81
2018-03-01T09:52:27.962Z,31.81
2018-03-01T09:54:55.537Z,32.26
2018-03-01T09:57:23.101Z,34.95
2018-03-01T09:59:50.687Z,28.24
2018-03-01T10:02:18.401Z,29.44
2018-03-01T10:04:45.921Z,30.19
2018-03-01T10:07:13.475Z,34.92
2018-03-01T10:09:41.137Z,35.66
2018-03-01T10:12:08.680Z,28.78
2018-03-01T10:14:36.223Z,25.00
2018-03-01T10:17:03.783Z,33.17
2018-03-01T10:19:31.370Z,30.31
2018-03-01T10:21:59.805Z,29.13
2018-03-01T10:24:27.378Z,33.51
2018-03-01T10:26:54.927Z,28.59
2018-03-01T10:29:22.570Z,32.90
2018-03-01T10:31:50.174Z,29.87
2018-03-01T10:34:17.725Z,33.33
2018-03-01T10:36:45.263Z,32.73
2018-03-01T10:39:12.826Z,31.74
2018-03-01T10:41:40.393Z,35.12
2018-03-01T10:44:07.940Z,29.65
2018-03-01T10:46:35.497Z,36.15
2018-03-01T10:49:03.029Z,39.98
2018-03-01T10:51:31.600Z,38.54
2018-03-01T10:53:59.198Z,33.28
2018-03-01T10:56:26.743Z,35.94
2018-03-01T10:58:54.288Z,32.74
2018-03-01T11:01:21.928Z,35.94
2018-03-01T11:03:49.454Z,37.63
2018-03-01T11:06:17.013Z,37.15
2018-03-01T11:08:44.693Z,34.61
2018-03-01T11:11:12.281Z,33.72
2018-03-01T11:13:39.883Z,36.70
2018-03-01T11:16:07.476Z,39.82
2018-03-01T11:18:35.087Z,41.36
2018-03-01T11:21:02.603Z,39.54
2018-03-01T11:23:30.154Z,42.49
2018-03-01T11:25:57.702Z,40.08
2018-03-01T11:28:25.230Z,40.76
2018-03-01T11:30:52.947Z,37.43
2018-03-01T11:33:20.500Z,36.34
2018-03-01T11:35:48.047Z,42.06
2018-03-01T11:38:15.694Z,42.06
2018-03-01T11:40:43.280Z,43.06
2018-03-01T11:43:10.812Z,42.50
2018-03-01T11:45:38.437Z,44.30
2018-03-01T11:48:05.964Z,48.25
2018-03-01T11:50:33.500Z,47.55
2018-03-01T11:53:01.064Z,49.08
2018-03-01T11:55:28.772Z,50.90
2018-03-01T11:57:56.302Z,50.50
2018-03-01T12:00:23.890Z,53.30
2018-03-01T12:02:51.438Z,52.99
2018-03-01T12:05:18.983Z,53.70
2018-03-01T12:07:46.550Z,56.90
2018-03-01T12:10:14.080Z,56.31
2018-03-01T12:12:41.643Z,56.05
2018-03-01T12:15:09.447Z,56.95
2018-03-01T12:17:36.972Z,53.65
2018-03-01T12:20:04.522Z,54.82
2018-03-01T12:22:32.151Z,58.82
2018-03-01T12:24:59.825Z,58.21
2018-03-01T12:27:27.368Z,61.23
2018-03-01T12:29:54.989Z,59.31
2018-03-01T12:32:22.565Z,60.10
2018-03-01T12:34:50.123Z,60.44
2018-03-01T12:37:17.666Z,60.05
2018-03-01T12:39:45.303Z,58.12
2018-03-01T12:42:12.891Z,62.05
2018-03-01T12:44:40.492Z,61.27
2018-03-01T12:47:08.047Z,63.00
2018-03-01T12:49:35.590Z,64.89
2018-03-01T12:52:03.476Z,59.96
2018-03-01T12:54:32.636Z,65.23
2018-03-01T12:57:01.389Z,66.23
2018-03-01T12:59:29.928Z,67.32
2018-03-01T13:01:57.552Z,68.02
2018-03-01T13:04:27.058Z,66.57
2018-03-01T13:06:54.830Z,68.84
2018-03-01T13:09:22.631Z,68.29
2018-03-01T13:11:50.215Z,67.23
2018-03-01T13:14:17.758Z,67.62
2018-03-01T13:16:45.312Z,67.84
2018-03-01T13:19:12.853Z,70.55
2018-03-01T13:21:41.264Z,68.98
2018-03-01T13:24:08.808Z,69.67
2018-03-01T13:26:36.394Z,69.37
2018-03-01T13:29:03.956Z,70.30
2018-03-01T13:31:33.470Z,69.67
2018-03-01T13:34:15.942Z,69.30
2018-03-01T13:36:43.537Z,71.05
2018-03-01T13:39:11.095Z,70.44
2018-03-01T13:41:38.675Z,71.47
2018-03-01T13:44:06.262Z,70.08
2018-03-01T13:46:49.765Z,69.63
2018-03-01T13:49:17.327Z,70.95
2018-03-01T13:51:44.871Z,70.94
2018-03-01T13:54:12.728Z,70.75
2018-03-01T13:56:40.485Z,70.99
2018-03-01T13:59:08.009Z,71.34
2018-03-01T14:01:35.544Z,70.68
2018-03-01T14:04:03.067Z,72.34
2018-03-01T14:06:30.980Z,71.02
2018-03-01T14:09:01.190Z,71.95
2018-03-01T14:11:28.751Z,71.91
2018-03-01T14:13:56.986Z,69.51
2018-03-01T14:16:28.172Z,70.75
2018-03-01T14:18:56.520Z,71.35
2018-03-01T14:21:26.515Z,71.08
2018-03-01T14:23:56.509Z,71.35
2018-03-01T14:26:26.975Z,70.35
2018-03-01T14:32:03.551Z,70.21
2018-03-01T14:34:31.082Z,71.57
2018-03-01T14:36:58.622Z,70.53
2018-03-01T14:39:26.173Z,71.50
2018-03-01T14:41:53.702Z,71.47
2018-03-01T14:44:21.232Z,72.25
2018-03-01T14:46:48.792Z,71.17
2018-03-01T14:49:16.340Z,71.64
2018-03-01T14:51:43.899Z,70.86
2018-03-01T14:54:11.433Z,72.60
2018-03-01T14:56:39.685Z,72.92
2018-03-01T14:59:07.242Z,70.23
2018-03-01T15:01:34.927Z,71.35
2018-03-01T15:04:02.436Z,73.38
2018-03-01T15:06:29.949Z,72.62
2018-03-01T15:08:57.488Z,73.06
2018-03-01T15:11:25.102Z,72.40
2018-03-01T15:13:52.678Z,73.58
2018-03-01T15:16:20.247Z,73.74
2018-03-01T15:18:48.085Z,73.63
2018-03-01T15:21:15.621Z,73.84
2018-03-01T15:23:43.168Z,74.46
2018-03-01T15:26:10.696Z,74.33
2018-03-01T15:28:38.510Z,74.06
2018-03-01T15:31:06.098Z,74.07
2018-03-01T15:33:33.617Z,74.33
2018-03-01T15:36:01.228Z,74.35
2018-03-01T15:38:28.999Z,74.04
2018-03-01T15:40:56.630Z,74.20
2018-03-01T15:43:24.153Z,73.85
2018-03-01T15:45:51.732Z,74.71
2018-03-01T15:48:19.409Z,74.73
2018-03-01T15:50:46.933Z,74.35
2018-03-01T15:53:15.693Z,73.83
2018-03-01T15:55:43.232Z,74.35
2018-03-01T15:58:10.825Z,74.83
2018-03-01T16:00:38.394Z,74.71
2018-03-01T16:03:05.928Z,75.01
2018-03-01T16:05:33.522Z,74.96
2018-03-01T16:08:01.045Z,74.64
2018-03-01T16:10:28.647Z,74.97
2018-03-01T16:12:56.189Z,74.63
2018-03-01T16:15:23.712Z,75.07
2018-03-01T16:17:51.234Z,74.95
2018-03-01T16:20:18.767Z,75.24
2018-03-01T16:22:46.316Z,73.87
2018-03-01T16:25:13.876Z,74.83
2018-03-01T16:27:41.417Z,74.60
2018-03-01T16:30:09.221Z,74.96
2018-03-01T16:32:36.744Z,74.72
2018-03-01T16:35:04.391Z,74.78
2018-03-01T16:37:31.939Z,74.60
2018-03-01T16:39:59.479Z,74.72
2018-03-01T16:42:27.037Z,74.87
2018-03-01T16:44:54.883Z,73.35
2018-03-01T16:47:22.508Z,74.78
2018-03-01T16:49:50.083Z,74.53
2018-03-01T16:52:17.825Z,74.78
2018-03-01T16:54:45.474Z,74.58
2018-03-01T16:57:13.001Z,74.84
2018-03-01T16:59:40.599Z,74.86
2018-03-01T17:02:08.178Z,74.75
2018-03-01T17:04:35.803Z,74.07
2018-03-01T17:07:03.483Z,74.86
2018-03-01T17:09:32.012Z,74.93
2018-03-01T17:11:59.571Z,74.77
2018-03-01T17:14:27.131Z,74.63
2018-03-01T17:16:54.782Z,74.19
2018-03-01T17:19:22.343Z,74.33
2018-03-01T17:21:49.943Z,74.26
2018-03-01T17:24:17.720Z,75.17
2018-03-01T17:26:53.021Z,74.38
2018-03-01T17:29:20.632Z,74.63
2018-03-01T17:31:48.204Z,75.12
2018-03-01T17:34:16.636Z,74.17
2018-03-01T17:36:44.168Z,74.87
2018-03-01T17:39:11.775Z,73.98
2018-03-01T17:41:39.384Z,74.74
2018-03-01T17:44:06.973Z,74.92
2018-03-01T17:46:34.512Z,74.40
2018-03-01T17:49:02.038Z,74.76
2018-03-01T17:51:29.633Z,74.61
2018-03-01T17:53:57.161Z,75.25
2018-03-01T17:56:24.728Z,74.92
2018-03-01T17:58:52.280Z,74.76
2018-03-01T18:01:19.883Z,74.83
2018-03-01T18:03:47.433Z,74.77
2018-03-01T18:06:15.028Z,74.85
2018-03-01T18:08:42.615Z,74.99
2018-03-01T18:11:10.167Z,73.88
2018-03-01T18:13:37.778Z,73.26
2018-03-01T18:16:05.339Z,74.54
2018-03-01T18:18:32.919Z,74.55
2018-03-01T18:21:00.536Z,74.45
2018-03-01T18:23:28.114Z,74.72
2018-03-01T18:25:55.655Z,74.18
2018-03-01T18:28:23.594Z,74.66
2018-03-01T18:30:51.164Z,74.59
2018-03-01T18:33:18.767Z,73.44
2018-03-01T18:35:46.366Z,73.85
2018-03-01T18:38:13.988Z,74.31
2018-03-01T18:40:41.554Z,74.25
2018-03-01T18:43:09.100Z,74.50
2018-03-01T18:45:36.693Z,74.16
2018-03-01T18:48:04.262Z,82.84
2018-03-01T18:50:31.831Z,78.94
2018-03-01T18:52:59.500Z,77.37
2018-03-01T18:55:27.155Z,76.01
2018-03-01T18:57:54.784Z,75.77
2018-03-01T19:00:24.205Z,75.36
2018-03-01T19:02:51.855Z,75.42
2018-03-01T19:05:19.422Z,75.07
2018-03-01T19:07:47.021Z,75.49
2018-03-01T19:10:14.597Z,75.26
2018-03-01T19:12:42.141Z,74.64
2018-03-01T19:15:09.719Z,74.90
2018-03-01T19:17:37.333Z,74.92
2018-03-01T19:20:04.901Z,74.67
2018-03-01T19:22:32.561Z,74.19
2018-03-01T19:25:00.109Z,74.14
2018-03-01T19:27:27.722Z,74.52
2018-03-01T19:29:55.296Z,74.12
2018-03-01T19:32:22.889Z,73.93
2018-03-01T19:34:50.508Z,74.70
2018-03-01T19:37:18.076Z,74.37
2018-03-01T19:39:45.690Z,74.66
2018-03-01T19:42:13.321Z,73.70
2018-03-01T19:44:40.854Z,88.57
2018-03-01T19:47:08.409Z,82.64
2018-03-01T19:49:36.017Z,79.39
2018-03-01T19:52:03.603Z,78.48
2018-03-01T19:54:31.155Z,77.58
2018-03-01T19:56:58.762Z,76.35
2018-03-01T19:59:26.360Z,76.46
2018-03-01T20:01:53.981Z,75.73
2018-03-01T20:04:21.639Z,75.89
2018-03-01T20:06:49.221Z,75.61
2018-03-01T20:09:16.789Z,74.98
2018-03-01T20:11:44.522Z,75.36
2018-03-01T20:14:12.144Z,74.52
2018-03-01T20:16:39.690Z,75.01
2018-03-01T20:19:07.324Z,74.70
2018-03-01T20:21:34.849Z,74.71
2018-03-01T20:24:02.432Z,74.63
2018-03-01T20:26:30.233Z,73.60
2018-03-01T20:28:57.756Z,74.48
2018-03-01T20:31:25.403Z,74.23
2018-03-01T20:33:52.917Z,74.05
2018-03-01T20:36:20.492Z,74.17
2018-03-01T20:38:48.080Z,73.87
2018-03-01T20:41:15.665Z,73.95
2018-03-01T20:43:43.244Z,74.05
2018-03-01T20:46:10.811Z,74.17
2018-03-01T20:48:39.300Z,73.90
2018-03-01T20:51:06.865Z,74.21
2018-03-01T20:53:34.437Z,74.18
2018-03-01T20:56:01.986Z,74.43
2018-03-01T20:58:29.540Z,74.02
2018-03-01T21:00:57.161Z,73.97
2018-03-01T21:03:24.740Z,74.21
2018-03-01T21:05:52.277Z,74.30
2018-03-01T21:08:19.842Z,74.14
2018-03-01T21:10:47.515Z,73.96
2018-03-01T21:13:15.119Z,72.95
2018-03-01T21:15:42.687Z,74.16
2018-03-01T21:18:10.228Z,73.75
2018-03-01T21:20:37.788Z,73.94
2018-03-01T21:23:05.471Z,73.81
2018-03-01T21:25:33.062Z,73.38
2018-03-01T21:28:00.623Z,73.87
2018-03-01T21:30:28.166Z,74.06
2018-03-01T21:32:55.711Z,73.07
2018-03-01T21:35:23.250Z,74.06
2018-03-01T21:37:50.826Z,73.36
2018-03-01T21:40:18.376Z,73.93
2018-03-01T21:42:45.908Z,73.61
2018-03-01T21:45:13.490Z,74.07
2018-03-01T21:47:41.040Z,73.93
2018-03-01T21:50:08.612Z,74.10
2018-03-01T21:52:36.194Z,73.55
2018-03-01T21:55:03.722Z,73.53
2018-03-01T21:57:31.261Z,73.33
2018-03-01T21:59:58.829Z,73.36
2018-03-01T22:02:26.382Z,73.86
2018-03-01T22:04:53.933Z,74.29
2018-03-01T22:07:21.449Z,73.82
2018-03-01T22:09:49.030Z,73.66
2018-03-01T22:12:16.620Z,73.86
2018-03-01T22:14:44.134Z,74.03
2018-03-01T22:17:11.692Z,72.80
2018-03-01T22:19:39.228Z,74.02
2018-03-01T22:22:06.758Z,73.88
2018-03-01T22:24:34.297Z,73.77
2018-03-01T22:27:01.822Z,73.36
2018-03-01T22:29:29.666Z,73.85
2018-03-01T22:31:57.206Z,73.55
2018-03-01T22:34:24.759Z,73.14
2018-03-01T22:36:52.297Z,73.69
2018-03-01T22:39:19.834Z,73.07
2018-03-01T22:41:47.350Z,72.51
2018-03-01T22:44:14.922Z,73.26
2018-03-01T22:46:42.470Z,73.79
2018-03-01T22:49:09.994Z,73.58
2018-03-01T22:51:37.619Z,73.14
2018-03-01T22:54:05.166Z,73.68
2018-03-01T22:56:32.705Z,73.37
2018-03-01T22:59:00.290Z,72.97
2018-03-01T23:01:27.836Z,73.60
2018-03-01T23:03:55.366Z,72.93
2018-03-01T23:06:22.992Z,73.73
2018-03-01T23:08:50.548Z,73.73
2018-03-01T23:11:18.177Z,72.72
2018-03-01T23:13:45.700Z,73.27
2018-03-01T23:16:13.252Z,73.37
2018-03-01T23:18:40.773Z,73.48
2018-03-01T23:21:08.309Z,73.28
2018-03-01T23:23:35.849Z,72.99
2018-03-01T23:26:03.370Z,73.26
2018-03-01T23:28:30.932Z,73.45
2018-03-01T23:30:58.469Z,73.09
2018-03-01T23:33:26.055Z,72.89
2018-03-01T23:35:53.640Z,73.54
2018-03-01T23:38:21.186Z,73.45
2018-03-01T23:40:48.748Z,73.64
2018-03-01T23:43:16.281Z,73.33
2018-03-01T23:45:43.834Z,72.86
2018-03-01T23:48:11.346Z,73.01
2018-03-01T23:50:38.859Z,73.28
2018-03-01T23:53:06.393Z,72.87
2018-03-01T23:55:33.914Z,73.34
2018-03-01T23:58:01.521Z,73.04
